sensor_id;sensor_type;location;lat;lon;timestamp;P1;durP1;ratioP1;P2;durP2;ratioP2
739;SDS011;354;42.694;23.336;2023-12-20T00:01:01;229.93;;;138.93;;
739;SDS011;354;42.694;23.336;2023-12-20T00:03:26;216.47;;;129.57;;
739;SDS011;354;42.694;23.336;2023-12-20T00:05:52;205.80;;;131.20;;
739;SDS011;354;42.694;23.336;2023-12-20T00:08:17;229.03;;;137.83;;
739;SDS011;354;42.694;23.336;2023-12-20T00:10:43;239.67;;;147.40;;
739;SDS011;354;42.694;23.336;2023-12-20T00:13:09;235.70;;;138.50;;
739;SDS011;354;42.694;23.336;2023-12-20T00:15:35;236.33;;;140.93;;
739;SDS011;354;42.694;23.336;2023-12-20T00:18:00;232.93;;;137.17;;
739;SDS011;354;42.694;23.336;2023-12-20T00:20:26;229.40;;;139.43;;
739;SDS011;354;42.694;23.336;2023-12-20T00:22:52;231.37;;;140.37;;
739;SDS011;354;42.694;23.336;2023-12-20T00:25:17;249.87;;;146.77;;
739;SDS011;354;42.694;23.336;2023-12-20T00:27:43;246.83;;;143.57;;
739;SDS011;354;42.694;23.336;2023-12-20T00:30:08;251.47;;;147.70;;
739;SDS011;354;42.694;23.336;2023-12-20T00:32:34;233.53;;;142.73;;
739;SDS011;354;42.694;23.336;2023-12-20T00:35:00;241.47;;;142.60;;
739;SDS011;354;42.694;23.336;2023-12-20T00:37:26;246.80;;;145.70;;
739;SDS011;354;42.694;23.336;2023-12-20T00:39:51;299.37;;;184.77;;
739;SDS011;354;42.694;23.336;2023-12-20T00:42:17;325.33;;;191.20;;
739;SDS011;354;42.694;23.336;2023-12-20T00:44:42;335.80;;;202.70;;
739;SDS011;354;42.694;23.336;2023-12-20T00:47:07;321.43;;;189.00;;
739;SDS011;354;42.694;23.336;2023-12-20T00:49:33;345.90;;;212.90;;
739;SDS011;354;42.694;23.336;2023-12-20T00:51:58;336.40;;;203.73;;
739;SDS011;354;42.694;23.336;2023-12-20T00:54:23;352.87;;;210.37;;
739;SDS011;354;42.694;23.336;2023-12-20T00:56:49;344.93;;;203.97;;
739;SDS011;354;42.694;23.336;2023-12-20T00:59:14;352.07;;;211.53;;
739;SDS011;354;42.694;23.336;2023-12-20T01:01:41;363.83;;;221.30;;
739;SDS011;354;42.694;23.336;2023-12-20T01:04:07;382.33;;;230.00;;
739;SDS011;354;42.694;23.336;2023-12-20T01:06:32;381.03;;;226.47;;
739;SDS011;354;42.694;23.336;2023-12-20T01:08:58;347.97;;;215.13;;
739;SDS011;354;42.694;23.336;2023-12-20T01:11:23;354.73;;;209.20;;
739;SDS011;354;42.694;23.336;2023-12-20T01:13:49;360.43;;;216.83;;
739;SDS011;354;42.694;23.336;2023-12-20T01:16:14;314.27;;;185.60;;
739;SDS011;354;42.694;23.336;2023-12-20T01:18:39;291.90;;;170.47;;
739;SDS011;354;42.694;23.336;2023-12-20T01:21:05;308.03;;;178.73;;
739;SDS011;354;42.694;23.336;2023-12-20T01:23:31;317.53;;;188.80;;
739;SDS011;354;42.694;23.336;2023-12-20T01:25:57;291.83;;;173.80;;
739;SDS011;354;42.694;23.336;2023-12-20T01:28:24;310.87;;;181.83;;
739;SDS011;354;42.694;23.336;2023-12-20T01:30:50;320.03;;;181.83;;
739;SDS011;354;42.694;23.336;2023-12-20T01:33:15;306.80;;;176.53;;
739;SDS011;354;42.694;23.336;2023-12-20T01:35:41;310.47;;;189.10;;
739;SDS011;354;42.694;23.336;2023-12-20T01:38:06;286.50;;;156.90;;
739;SDS011;354;42.694;23.336;2023-12-20T01:40:32;300.60;;;171.70;;
739;SDS011;354;42.694;23.336;2023-12-20T01:42:58;287.90;;;170.90;;
739;SDS011;354;42.694;23.336;2023-12-20T01:45:24;270.00;;;158.53;;
739;SDS011;354;42.694;23.336;2023-12-20T01:47:50;290.00;;;167.27;;
739;SDS011;354;42.694;23.336;2023-12-20T02:00:26;261.77;;;146.33;;
739;SDS011;354;42.694;23.336;2023-12-20T02:02:54;235.87;;;140.33;;
739;SDS011;354;42.694;23.336;2023-12-20T02:05:20;217.73;;;119.63;;
739;SDS011;354;42.694;23.336;2023-12-20T02:07:47;167.97;;;96.13;;
739;SDS011;354;42.694;23.336;2023-12-20T02:10:12;170.43;;;102.53;;
739;SDS011;354;42.694;23.336;2023-12-20T02:12:38;168.83;;;91.03;;
739;SDS011;354;42.694;23.336;2023-12-20T02:15:04;155.07;;;87.87;;
739;SDS011;354;42.694;23.336;2023-12-20T02:17:30;159.03;;;96.93;;
739;SDS011;354;42.694;23.336;2023-12-20T02:19:57;145.90;;;85.23;;
739;SDS011;354;42.694;23.336;2023-12-20T02:22:22;148.47;;;85.63;;
739;SDS011;354;42.694;23.336;2023-12-20T02:24:48;137.53;;;77.43;;
739;SDS011;354;42.694;23.336;2023-12-20T02:27:13;150.50;;;81.03;;
739;SDS011;354;42.694;23.336;2023-12-20T02:29:41;153.17;;;83.70;;
739;SDS011;354;42.694;23.336;2023-12-20T02:32:07;137.77;;;80.53;;
739;SDS011;354;42.694;23.336;2023-12-20T02:34:32;151.07;;;88.03;;
739;SDS011;354;42.694;23.336;2023-12-20T02:36:57;144.53;;;83.10;;
739;SDS011;354;42.694;23.336;2023-12-20T02:39:23;150.20;;;83.13;;
739;SDS011;354;42.694;23.336;2023-12-20T02:41:48;139.90;;;82.10;;
739;SDS011;354;42.694;23.336;2023-12-20T02:44:14;142.50;;;74.07;;
739;SDS011;354;42.694;23.336;2023-12-20T02:46:39;169.43;;;85.07;;
739;SDS011;354;42.694;23.336;2023-12-20T02:49:05;154.13;;;80.17;;
739;SDS011;354;42.694;23.336;2023-12-20T02:51:31;173.20;;;81.33;;
739;SDS011;354;42.694;23.336;2023-12-20T02:53:56;144.07;;;77.97;;
739;SDS011;354;42.694;23.336;2023-12-20T02:56:22;153.73;;;78.00;;
739;SDS011;354;42.694;23.336;2023-12-20T02:58:47;163.30;;;83.77;;
739;SDS011;354;42.694;23.336;2023-12-20T03:01:12;180.10;;;81.63;;
739;SDS011;354;42.694;23.336;2023-12-20T03:03:38;183.37;;;86.07;;
739;SDS011;354;42.694;23.336;2023-12-20T03:06:03;173.63;;;76.20;;
739;SDS011;354;42.694;23.336;2023-12-20T03:08:29;153.70;;;76.70;;
739;SDS011;354;42.694;23.336;2023-12-20T03:10:54;187.87;;;76.53;;
739;SDS011;354;42.694;23.336;2023-12-20T03:13:20;145.80;;;70.60;;
739;SDS011;354;42.694;23.336;2023-12-20T03:15:45;205.30;;;74.83;;
739;SDS011;354;42.694;23.336;2023-12-20T03:18:11;142.87;;;68.33;;
739;SDS011;354;42.694;23.336;2023-12-20T03:20:36;142.77;;;66.67;;
739;SDS011;354;42.694;23.336;2023-12-20T03:23:02;138.73;;;65.63;;
739;SDS011;354;42.694;23.336;2023-12-20T03:25:28;286.73;;;84.87;;
739;SDS011;354;42.694;23.336;2023-12-20T03:27:53;215.87;;;78.67;;
739;SDS011;354;42.694;23.336;2023-12-20T03:30:19;179.80;;;78.07;;
739;SDS011;354;42.694;23.336;2023-12-20T03:32:44;192.00;;;75.13;;
739;SDS011;354;42.694;23.336;2023-12-20T03:35:10;227.50;;;81.07;;
739;SDS011;354;42.694;23.336;2023-12-20T03:37:36;203.07;;;82.43;;
739;SDS011;354;42.694;23.336;2023-12-20T03:40:01;161.23;;;76.70;;
739;SDS011;354;42.694;23.336;2023-12-20T03:42:27;153.03;;;71.73;;
739;SDS011;354;42.694;23.336;2023-12-20T03:44:53;202.27;;;80.93;;
739;SDS011;354;42.694;23.336;2023-12-20T03:47:18;157.90;;;72.97;;
739;SDS011;354;42.694;23.336;2023-12-20T03:49:43;172.87;;;75.20;;
739;SDS011;354;42.694;23.336;2023-12-20T03:52:09;210.07;;;78.03;;
739;SDS011;354;42.694;23.336;2023-12-20T03:54:35;209.37;;;81.53;;
739;SDS011;354;42.694;23.336;2023-12-20T03:57:00;227.30;;;84.40;;
739;SDS011;354;42.694;23.336;2023-12-20T03:59:26;212.63;;;84.30;;
739;SDS011;354;42.694;23.336;2023-12-20T04:01:51;264.53;;;87.40;;
739;SDS011;354;42.694;23.336;2023-12-20T04:04:17;206.73;;;85.07;;
739;SDS011;354;42.694;23.336;2023-12-20T04:06:42;152.10;;;71.30;;
739;SDS011;354;42.694;23.336;2023-12-20T04:09:08;142.33;;;75.23;;
739;SDS011;354;42.694;23.336;2023-12-20T04:11:37;173.30;;;80.53;;
739;SDS011;354;42.694;23.336;2023-12-20T04:14:02;147.00;;;75.93;;
739;SDS011;354;42.694;23.336;2023-12-20T04:16:27;148.50;;;78.33;;
739;SDS011;354;42.694;23.336;2023-12-20T04:18:53;174.97;;;82.77;;
739;SDS011;354;42.694;23.336;2023-12-20T04:21:18;153.73;;;78.43;;
739;SDS011;354;42.694;23.336;2023-12-20T04:23:44;138.30;;;72.07;;
739;SDS011;354;42.694;23.336;2023-12-20T04:26:10;132.23;;;75.03;;
739;SDS011;354;42.694;23.336;2023-12-20T04:28:35;146.77;;;77.23;;
739;SDS011;354;42.694;23.336;2023-12-20T04:31:01;153.60;;;79.43;;
739;SDS011;354;42.694;23.336;2023-12-20T04:33:26;168.57;;;76.57;;
739;SDS011;354;42.694;23.336;2023-12-20T04:35:52;183.63;;;84.83;;
739;SDS011;354;42.694;23.336;2023-12-20T04:38:17;154.97;;;77.83;;
739;SDS011;354;42.694;23.336;2023-12-20T04:40:42;142.00;;;68.50;;
739;SDS011;354;42.694;23.336;2023-12-20T04:43:08;146.57;;;72.47;;
739;SDS011;354;42.694;23.336;2023-12-20T04:45:36;125.03;;;69.90;;
739;SDS011;354;42.694;23.336;2023-12-20T04:48:02;126.67;;;68.60;;
739;SDS011;354;42.694;23.336;2023-12-20T04:50:27;114.40;;;63.20;;
739;SDS011;354;42.694;23.336;2023-12-20T04:52:53;137.23;;;69.97;;
739;SDS011;354;42.694;23.336;2023-12-20T04:55:18;140.63;;;70.13;;
739;SDS011;354;42.694;23.336;2023-12-20T04:57:44;135.23;;;70.67;;
739;SDS011;354;42.694;23.336;2023-12-20T05:00:09;179.53;;;79.97;;
739;SDS011;354;42.694;23.336;2023-12-20T05:02:35;150.83;;;64.03;;
739;SDS011;354;42.694;23.336;2023-12-20T05:05:01;203.93;;;83.93;;
739;SDS011;354;42.694;23.336;2023-12-20T05:07:27;269.10;;;96.07;;
739;SDS011;354;42.694;23.336;2023-12-20T05:09:52;277.17;;;92.80;;
739;SDS011;354;42.694;23.336;2023-12-20T05:12:18;175.67;;;79.90;;
739;SDS011;354;42.694;23.336;2023-12-20T05:14:44;286.93;;;102.13;;
739;SDS011;354;42.694;23.336;2023-12-20T05:17:11;160.03;;;82.73;;
739;SDS011;354;42.694;23.336;2023-12-20T05:19:36;259.20;;;98.30;;
739;SDS011;354;42.694;23.336;2023-12-20T05:22:01;181.47;;;87.40;;
739;SDS011;354;42.694;23.336;2023-12-20T05:24:27;253.90;;;102.43;;
739;SDS011;354;42.694;23.336;2023-12-20T05:26:53;333.77;;;110.17;;
739;SDS011;354;42.694;23.336;2023-12-20T05:29:18;179.47;;;89.20;;
739;SDS011;354;42.694;23.336;2023-12-20T05:31:43;195.63;;;85.10;;
739;SDS011;354;42.694;23.336;2023-12-20T05:34:09;171.03;;;81.67;;
739;SDS011;354;42.694;23.336;2023-12-20T05:36:34;234.63;;;98.67;;
739;SDS011;354;42.694;23.336;2023-12-20T05:39:00;219.30;;;91.80;;
739;SDS011;354;42.694;23.336;2023-12-20T05:41:25;206.37;;;93.20;;
739;SDS011;354;42.694;23.336;2023-12-20T05:43:51;168.93;;;80.00;;
739;SDS011;354;42.694;23.336;2023-12-20T05:46:16;168.47;;;82.77;;
739;SDS011;354;42.694;23.336;2023-12-20T05:48:41;182.37;;;86.67;;
739;SDS011;354;42.694;23.336;2023-12-20T05:51:07;195.80;;;85.60;;
739;SDS011;354;42.694;23.336;2023-12-20T05:53:33;163.40;;;90.50;;
739;SDS011;354;42.694;23.336;2023-12-20T05:55:58;188.37;;;89.63;;
739;SDS011;354;42.694;23.336;2023-12-20T05:58:24;372.30;;;139.70;;
739;SDS011;354;42.694;23.336;2023-12-20T06:00:50;195.77;;;103.00;;
739;SDS011;354;42.694;23.336;2023-12-20T06:03:15;252.10;;;101.63;;
739;SDS011;354;42.694;23.336;2023-12-20T06:05:40;158.97;;;85.70;;
739;SDS011;354;42.694;23.336;2023-12-20T06:08:06;168.33;;;87.80;;
739;SDS011;354;42.694;23.336;2023-12-20T06:10:31;164.27;;;86.80;;
739;SDS011;354;42.694;23.336;2023-12-20T06:12:57;185.03;;;90.23;;
739;SDS011;354;42.694;23.336;2023-12-20T06:15:23;160.20;;;83.77;;
739;SDS011;354;42.694;23.336;2023-12-20T06:17:49;222.23;;;90.90;;
739;SDS011;354;42.694;23.336;2023-12-20T06:20:15;190.20;;;92.50;;
739;SDS011;354;42.694;23.336;2023-12-20T06:22:40;184.43;;;92.00;;
739;SDS011;354;42.694;23.336;2023-12-20T06:25:06;150.07;;;82.80;;
739;SDS011;354;42.694;23.336;2023-12-20T06:27:32;158.07;;;80.17;;
739;SDS011;354;42.694;23.336;2023-12-20T06:29:57;199.47;;;88.83;;
739;SDS011;354;42.694;23.336;2023-12-20T06:32:24;165.77;;;94.13;;
739;SDS011;354;42.694;23.336;2023-12-20T06:34:49;203.57;;;97.13;;
739;SDS011;354;42.694;23.336;2023-12-20T06:37:15;198.37;;;114.57;;
739;SDS011;354;42.694;23.336;2023-12-20T06:39:40;180.20;;;88.87;;
739;SDS011;354;42.694;23.336;2023-12-20T06:42:06;164.90;;;86.40;;
739;SDS011;354;42.694;23.336;2023-12-20T06:44:31;131.87;;;77.40;;
739;SDS011;354;42.694;23.336;2023-12-20T06:46:57;142.67;;;83.90;;
739;SDS011;354;42.694;23.336;2023-12-20T06:49:23;132.20;;;78.00;;
739;SDS011;354;42.694;23.336;2023-12-20T06:51:48;123.80;;;70.07;;
739;SDS011;354;42.694;23.336;2023-12-20T06:54:14;128.00;;;79.77;;
739;SDS011;354;42.694;23.336;2023-12-20T06:56:39;143.43;;;80.67;;
739;SDS011;354;42.694;23.336;2023-12-20T06:59:06;150.23;;;88.00;;
739;SDS011;354;42.694;23.336;2023-12-20T07:01:31;150.33;;;83.27;;
739;SDS011;354;42.694;23.336;2023-12-20T07:03:56;132.60;;;80.43;;
739;SDS011;354;42.694;23.336;2023-12-20T07:06:22;130.00;;;74.60;;
739;SDS011;354;42.694;23.336;2023-12-20T07:08:47;151.90;;;78.30;;
739;SDS011;354;42.694;23.336;2023-12-20T07:11:13;131.90;;;73.17;;
739;SDS011;354;42.694;23.336;2023-12-20T07:13:38;158.53;;;84.27;;
739;SDS011;354;42.694;23.336;2023-12-20T07:16:04;126.83;;;75.00;;
739;SDS011;354;42.694;23.336;2023-12-20T07:18:29;156.83;;;84.00;;
739;SDS011;354;42.694;23.336;2023-12-20T07:20:55;132.13;;;73.20;;
739;SDS011;354;42.694;23.336;2023-12-20T07:23:20;131.03;;;82.17;;
739;SDS011;354;42.694;23.336;2023-12-20T07:25:46;122.40;;;71.73;;
739;SDS011;354;42.694;23.336;2023-12-20T07:28:12;128.90;;;75.57;;
739;SDS011;354;42.694;23.336;2023-12-20T07:30:37;147.10;;;80.20;;
739;SDS011;354;42.694;23.336;2023-12-20T07:33:02;125.60;;;74.47;;
739;SDS011;354;42.694;23.336;2023-12-20T07:35:28;120.17;;;79.83;;
739;SDS011;354;42.694;23.336;2023-12-20T07:37:53;133.20;;;80.80;;
739;SDS011;354;42.694;23.336;2023-12-20T07:40:19;102.37;;;63.67;;
739;SDS011;354;42.694;23.336;2023-12-20T07:42:44;121.60;;;71.00;;
739;SDS011;354;42.694;23.336;2023-12-20T07:45:09;132.53;;;72.80;;
739;SDS011;354;42.694;23.336;2023-12-20T07:47:36;152.47;;;78.63;;
739;SDS011;354;42.694;23.336;2023-12-20T07:50:01;127.43;;;79.07;;
739;SDS011;354;42.694;23.336;2023-12-20T07:52:29;120.57;;;81.50;;
739;SDS011;354;42.694;23.336;2023-12-20T07:54:55;118.87;;;69.53;;
739;SDS011;354;42.694;23.336;2023-12-20T07:57:21;118.17;;;73.00;;
739;SDS011;354;42.694;23.336;2023-12-20T07:59:46;150.00;;;87.67;;
739;SDS011;354;42.694;23.336;2023-12-20T08:02:12;137.90;;;86.27;;
739;SDS011;354;42.694;23.336;2023-12-20T08:04:37;145.43;;;88.00;;
739;SDS011;354;42.694;23.336;2023-12-20T08:07:03;133.77;;;81.47;;
739;SDS011;354;42.694;23.336;2023-12-20T08:09:29;132.27;;;73.83;;
739;SDS011;354;42.694;23.336;2023-12-20T08:11:54;129.83;;;78.47;;
739;SDS011;354;42.694;23.336;2023-12-20T08:14:20;126.27;;;78.07;;
739;SDS011;354;42.694;23.336;2023-12-20T08:16:46;142.43;;;87.47;;
739;SDS011;354;42.694;23.336;2023-12-20T08:19:11;144.47;;;84.70;;
739;SDS011;354;42.694;23.336;2023-12-20T08:21:37;124.20;;;75.50;;
739;SDS011;354;42.694;23.336;2023-12-20T08:24:03;130.30;;;79.00;;
739;SDS011;354;42.694;23.336;2023-12-20T08:26:28;121.97;;;82.10;;
739;SDS011;354;42.694;23.336;2023-12-20T08:28:54;124.67;;;75.53;;
739;SDS011;354;42.694;23.336;2023-12-20T08:31:19;129.97;;;76.87;;
739;SDS011;354;42.694;23.336;2023-12-20T08:33:46;122.40;;;72.50;;
739;SDS011;354;42.694;23.336;2023-12-20T08:36:12;126.87;;;66.50;;
739;SDS011;354;42.694;23.336;2023-12-20T08:38:38;139.17;;;80.97;;
739;SDS011;354;42.694;23.336;2023-12-20T08:41:04;124.93;;;81.80;;
739;SDS011;354;42.694;23.336;2023-12-20T08:43:35;123.90;;;75.33;;
739;SDS011;354;42.694;23.336;2023-12-20T08:46:01;113.67;;;72.37;;
739;SDS011;354;42.694;23.336;2023-12-20T08:48:28;119.70;;;68.87;;
739;SDS011;354;42.694;23.336;2023-12-20T08:50:53;123.57;;;78.10;;
739;SDS011;354;42.694;23.336;2023-12-20T08:53:18;117.37;;;75.60;;
739;SDS011;354;42.694;23.336;2023-12-20T08:55:44;127.90;;;75.27;;
739;SDS011;354;42.694;23.336;2023-12-20T08:58:10;106.60;;;68.73;;
739;SDS011;354;42.694;23.336;2023-12-20T09:00:35;113.53;;;74.53;;
739;SDS011;354;42.694;23.336;2023-12-20T09:03:01;109.63;;;68.63;;
739;SDS011;354;42.694;23.336;2023-12-20T09:05:27;110.33;;;68.80;;
739;SDS011;354;42.694;23.336;2023-12-20T09:07:53;117.83;;;71.10;;
739;SDS011;354;42.694;23.336;2023-12-20T09:10:19;127.33;;;81.20;;
739;SDS011;354;42.694;23.336;2023-12-20T09:12:50;93.43;;;62.47;;
739;SDS011;354;42.694;23.336;2023-12-20T09:15:16;96.53;;;62.67;;
739;SDS011;354;42.694;23.336;2023-12-20T09:17:42;95.07;;;62.43;;
739;SDS011;354;42.694;23.336;2023-12-20T09:20:08;97.50;;;61.00;;
739;SDS011;354;42.694;23.336;2023-12-20T09:22:34;92.33;;;58.10;;
739;SDS011;354;42.694;23.336;2023-12-20T09:25:00;127.20;;;79.83;;
739;SDS011;354;42.694;23.336;2023-12-20T09:27:26;95.50;;;58.83;;
739;SDS011;354;42.694;23.336;2023-12-20T09:29:52;104.40;;;62.20;;
739;SDS011;354;42.694;23.336;2023-12-20T09:32:18;96.30;;;59.03;;
739;SDS011;354;42.694;23.336;2023-12-20T09:34:45;102.87;;;59.40;;
739;SDS011;354;42.694;23.336;2023-12-20T09:37:11;107.93;;;61.57;;
739;SDS011;354;42.694;23.336;2023-12-20T09:39:36;110.03;;;62.93;;
739;SDS011;354;42.694;23.336;2023-12-20T09:42:05;115.10;;;65.17;;
739;SDS011;354;42.694;23.336;2023-12-20T09:44:32;112.07;;;57.00;;
739;SDS011;354;42.694;23.336;2023-12-20T09:46:59;110.63;;;63.80;;
739;SDS011;354;42.694;23.336;2023-12-20T09:49:28;109.10;;;58.17;;
739;SDS011;354;42.694;23.336;2023-12-20T09:51:53;105.33;;;66.37;;
739;SDS011;354;42.694;23.336;2023-12-20T09:54:19;118.07;;;65.60;;
739;SDS011;354;42.694;23.336;2023-12-20T09:56:46;106.63;;;57.97;;
739;SDS011;354;42.694;23.336;2023-12-20T09:59:12;106.17;;;58.23;;
739;SDS011;354;42.694;23.336;2023-12-20T10:01:41;102.53;;;55.53;;
739;SDS011;354;42.694;23.336;2023-12-20T10:04:08;94.50;;;55.03;;
739;SDS011;354;42.694;23.336;2023-12-20T10:06:37;97.37;;;58.20;;
739;SDS011;354;42.694;23.336;2023-12-20T10:09:06;106.37;;;56.50;;
739;SDS011;354;42.694;23.336;2023-12-20T10:11:32;105.93;;;59.57;;
739;SDS011;354;42.694;23.336;2023-12-20T10:14:00;105.70;;;64.37;;
739;SDS011;354;42.694;23.336;2023-12-20T10:16:26;104.83;;;57.67;;
739;SDS011;354;42.694;23.336;2023-12-20T10:18:52;102.80;;;57.97;;
739;SDS011;354;42.694;23.336;2023-12-20T10:21:18;101.03;;;57.40;;
739;SDS011;354;42.694;23.336;2023-12-20T10:23:45;105.87;;;60.93;;
739;SDS011;354;42.694;23.336;2023-12-20T10:26:17;107.23;;;60.47;;
739;SDS011;354;42.694;23.336;2023-12-20T10:28:44;102.30;;;58.90;;
739;SDS011;354;42.694;23.336;2023-12-20T10:31:09;120.63;;;62.73;;
739;SDS011;354;42.694;23.336;2023-12-20T10:33:35;121.50;;;60.07;;
739;SDS011;354;42.694;23.336;2023-12-20T10:36:00;108.87;;;62.10;;
739;SDS011;354;42.694;23.336;2023-12-20T10:38:26;114.97;;;64.20;;
739;SDS011;354;42.694;23.336;2023-12-20T10:40:54;133.87;;;66.10;;
739;SDS011;354;42.694;23.336;2023-12-20T10:43:24;130.60;;;65.83;;
739;SDS011;354;42.694;23.336;2023-12-20T10:45:51;117.93;;;58.27;;
739;SDS011;354;42.694;23.336;2023-12-20T10:48:17;115.73;;;59.30;;
739;SDS011;354;42.694;23.336;2023-12-20T10:50:43;120.93;;;66.67;;
739;SDS011;354;42.694;23.336;2023-12-20T10:53:10;127.90;;;69.27;;
739;SDS011;354;42.694;23.336;2023-12-20T10:55:37;122.00;;;62.97;;
739;SDS011;354;42.694;23.336;2023-12-20T10:58:08;136.67;;;69.97;;
739;SDS011;354;42.694;23.336;2023-12-20T11:00:35;122.83;;;71.20;;
739;SDS011;354;42.694;23.336;2023-12-20T11:03:08;123.90;;;61.37;;
739;SDS011;354;42.694;23.336;2023-12-20T11:08:22;114.00;;;64.00;;
739;SDS011;354;42.694;23.336;2023-12-20T11:10:55;122.43;;;67.07;;
739;SDS011;354;42.694;23.336;2023-12-20T11:13:32;110.53;;;64.73;;
739;SDS011;354;42.694;23.336;2023-12-20T11:16:03;114.90;;;62.83;;
739;SDS011;354;42.694;23.336;2023-12-20T11:18:29;117.80;;;61.33;;
739;SDS011;354;42.694;23.336;2023-12-20T11:20:55;115.77;;;67.53;;
739;SDS011;354;42.694;23.336;2023-12-20T11:23:26;120.33;;;70.83;;
739;SDS011;354;42.694;23.336;2023-12-20T11:25:52;114.20;;;65.80;;
739;SDS011;354;42.694;23.336;2023-12-20T11:28:23;119.33;;;70.23;;
739;SDS011;354;42.694;23.336;2023-12-20T11:33:15;120.03;;;69.00;;
739;SDS011;354;42.694;23.336;2023-12-20T11:35:41;120.93;;;72.37;;
739;SDS011;354;42.694;23.336;2023-12-20T11:38:10;118.73;;;65.37;;
739;SDS011;354;42.694;23.336;2023-12-20T11:40:36;116.10;;;67.03;;
739;SDS011;354;42.694;23.336;2023-12-20T11:43:02;113.30;;;69.47;;
739;SDS011;354;42.694;23.336;2023-12-20T11:45:29;116.40;;;65.97;;
739;SDS011;354;42.694;23.336;2023-12-20T11:47:55;122.63;;;72.50;;
739;SDS011;354;42.694;23.336;2023-12-20T11:50:22;139.87;;;76.70;;
739;SDS011;354;42.694;23.336;2023-12-20T11:52:49;131.40;;;71.20;;
739;SDS011;354;42.694;23.336;2023-12-20T11:55:17;135.93;;;75.23;;
739;SDS011;354;42.694;23.336;2023-12-20T11:57:43;133.33;;;70.33;;
739;SDS011;354;42.694;23.336;2023-12-20T12:00:08;139.23;;;77.23;;
739;SDS011;354;42.694;23.336;2023-12-20T12:02:35;141.53;;;74.80;;
739;SDS011;354;42.694;23.336;2023-12-20T12:05:00;139.17;;;78.03;;
739;SDS011;354;42.694;23.336;2023-12-20T12:07:26;131.03;;;70.30;;
739;SDS011;354;42.694;23.336;2023-12-20T12:09:51;133.53;;;76.27;;
739;SDS011;354;42.694;23.336;2023-12-20T12:12:17;120.37;;;67.50;;
739;SDS011;354;42.694;23.336;2023-12-20T12:14:44;128.10;;;69.00;;
739;SDS011;354;42.694;23.336;2023-12-20T12:17:10;123.40;;;67.13;;
739;SDS011;354;42.694;23.336;2023-12-20T12:19:39;128.40;;;69.13;;
739;SDS011;354;42.694;23.336;2023-12-20T12:22:10;130.93;;;68.50;;
739;SDS011;354;42.694;23.336;2023-12-20T12:24:41;132.30;;;69.73;;
739;SDS011;354;42.694;23.336;2023-12-20T12:27:07;123.13;;;65.63;;
739;SDS011;354;42.694;23.336;2023-12-20T12:29:33;131.80;;;66.53;;
739;SDS011;354;42.694;23.336;2023-12-20T12:31:59;141.23;;;76.80;;
739;SDS011;354;42.694;23.336;2023-12-20T12:34:27;143.00;;;75.93;;
739;SDS011;354;42.694;23.336;2023-12-20T12:36:53;131.50;;;67.23;;
739;SDS011;354;42.694;23.336;2023-12-20T12:39:18;143.67;;;77.17;;
739;SDS011;354;42.694;23.336;2023-12-20T12:41:44;137.67;;;76.97;;
739;SDS011;354;42.694;23.336;2023-12-20T12:44:10;129.30;;;69.90;;
739;SDS011;354;42.694;23.336;2023-12-20T12:46:35;132.20;;;70.20;;
739;SDS011;354;42.694;23.336;2023-12-20T12:49:01;139.27;;;73.10;;
739;SDS011;354;42.694;23.336;2023-12-20T12:51:26;140.53;;;75.23;;
739;SDS011;354;42.694;23.336;2023-12-20T12:53:52;133.40;;;64.43;;
739;SDS011;354;42.694;23.336;2023-12-20T12:56:18;121.67;;;67.13;;
739;SDS011;354;42.694;23.336;2023-12-20T12:58:43;122.10;;;62.27;;
739;SDS011;354;42.694;23.336;2023-12-20T13:01:09;139.67;;;72.90;;
739;SDS011;354;42.694;23.336;2023-12-20T13:03:35;131.73;;;69.60;;
739;SDS011;354;42.694;23.336;2023-12-20T13:06:01;135.37;;;71.00;;
739;SDS011;354;42.694;23.336;2023-12-20T13:08:26;144.13;;;81.47;;
739;SDS011;354;42.694;23.336;2023-12-20T13:10:52;151.23;;;79.27;;
739;SDS011;354;42.694;23.336;2023-12-20T13:13:17;128.97;;;69.03;;
739;SDS011;354;42.694;23.336;2023-12-20T13:15:43;130.23;;;71.60;;
739;SDS011;354;42.694;23.336;2023-12-20T13:18:15;132.67;;;68.23;;
739;SDS011;354;42.694;23.336;2023-12-20T13:20:41;129.63;;;69.70;;
739;SDS011;354;42.694;23.336;2023-12-20T13:23:06;120.20;;;63.10;;
739;SDS011;354;42.694;23.336;2023-12-20T13:25:32;108.60;;;61.67;;
739;SDS011;354;42.694;23.336;2023-12-20T13:27:58;105.50;;;60.67;;
739;SDS011;354;42.694;23.336;2023-12-20T13:30:24;106.47;;;59.50;;
739;SDS011;354;42.694;23.336;2023-12-20T13:32:49;95.83;;;56.00;;
739;SDS011;354;42.694;23.336;2023-12-20T13:35:15;104.97;;;60.80;;
739;SDS011;354;42.694;23.336;2023-12-20T13:37:40;100.10;;;50.07;;
739;SDS011;354;42.694;23.336;2023-12-20T13:40:06;104.73;;;56.13;;
739;SDS011;354;42.694;23.336;2023-12-20T13:42:32;102.77;;;55.50;;
739;SDS011;354;42.694;23.336;2023-12-20T13:44:57;112.67;;;57.23;;
739;SDS011;354;42.694;23.336;2023-12-20T13:47:23;111.03;;;54.07;;
739;SDS011;354;42.694;23.336;2023-12-20T13:49:48;109.63;;;57.67;;
739;SDS011;354;42.694;23.336;2023-12-20T13:52:13;136.87;;;65.73;;
739;SDS011;354;42.694;23.336;2023-12-20T13:54:39;142.87;;;76.20;;
739;SDS011;354;42.694;23.336;2023-12-20T13:57:04;149.50;;;74.40;;
739;SDS011;354;42.694;23.336;2023-12-20T13:59:30;147.90;;;72.80;;
739;SDS011;354;42.694;23.336;2023-12-20T14:01:55;132.67;;;71.20;;
739;SDS011;354;42.694;23.336;2023-12-20T14:04:22;138.00;;;74.80;;
739;SDS011;354;42.694;23.336;2023-12-20T14:06:47;131.20;;;67.47;;
739;SDS011;354;42.694;23.336;2023-12-20T14:09:12;131.10;;;66.07;;
739;SDS011;354;42.694;23.336;2023-12-20T14:11:38;120.20;;;66.27;;
739;SDS011;354;42.694;23.336;2023-12-20T14:14:06;133.17;;;67.40;;
739;SDS011;354;42.694;23.336;2023-12-20T14:16:32;131.67;;;67.13;;
739;SDS011;354;42.694;23.336;2023-12-20T14:19:01;133.43;;;69.90;;
739;SDS011;354;42.694;23.336;2023-12-20T14:21:28;140.47;;;70.43;;
739;SDS011;354;42.694;23.336;2023-12-20T14:23:53;131.77;;;65.80;;
739;SDS011;354;42.694;23.336;2023-12-20T14:26:18;133.23;;;65.10;;
739;SDS011;354;42.694;23.336;2023-12-20T14:28:44;130.93;;;63.80;;
739;SDS011;354;42.694;23.336;2023-12-20T14:31:09;124.20;;;60.50;;
739;SDS011;354;42.694;23.336;2023-12-20T14:33:35;139.23;;;67.00;;
739;SDS011;354;42.694;23.336;2023-12-20T14:36:03;163.00;;;71.07;;
739;SDS011;354;42.694;23.336;2023-12-20T14:38:30;146.13;;;68.97;;
739;SDS011;354;42.694;23.336;2023-12-20T14:40:56;148.80;;;71.00;;
739;SDS011;354;42.694;23.336;2023-12-20T14:43:22;148.17;;;69.93;;
739;SDS011;354;42.694;23.336;2023-12-20T14:45:48;156.90;;;69.10;;
739;SDS011;354;42.694;23.336;2023-12-20T14:48:13;160.00;;;69.30;;
739;SDS011;354;42.694;23.336;2023-12-20T14:50:38;140.40;;;69.73;;
739;SDS011;354;42.694;23.336;2023-12-20T14:53:05;151.47;;;67.53;;